sensor_id;sensor_type;location;lat;lon;timestamp;P1;durP1;ratioP1;P2;durP2;ratioP2
8421;SDS011;4248;48.196;10.924;2023-02-01T00:01:40;5.30;;;3.57;;
8421;SDS011;4248;48.196;10.924;2023-02-01T00:04:06;11.10;;;5.47;;
8421;SDS011;4248;48.196;10.924;2023-02-01T00:06:31;7.97;;;4.87;;
8421;SDS011;4248;48.196;10.924;2023-02-01T00:08:57;7.90;;;5.30;;
8421;SDS011;4248;48.196;10.924;2023-02-01T00:11:23;7.27;;;4.97;;
8421;SDS011;4248;48.196;10.924;2023-02-01T00:13:49;11.37;;;5.70;;
8421;SDS011;4248;48.196;10.924;2023-02-01T00:16:19;7.65;;;4.90;;
8421;SDS011;4248;48.196;10.924;2023-02-01T00:18:48;8.07;;;5.73;;
8421;SDS011;4248;48.196;10.924;2023-02-01T00:21:16;10.40;;;5.87;;
8421;SDS011;4248;48.196;10.924;2023-02-01T00:23:45;13.33;;;6.23;;
8421;SDS011;4248;48.196;10.924;2023-02-01T00:26:16;8.47;;;5.47;;
8421;SDS011;4248;48.196;10.924;2023-02-01T00:28:44;9.67;;;6.00;;
8421;SDS011;4248;48.196;10.924;2023-02-01T00:31:10;9.33;;;5.40;;
8421;SDS011;4248;48.196;10.924;2023-02-01T00:33:36;9.20;;;5.23;;
8421;SDS011;4248;48.196;10.924;2023-02-01T00:36:05;12.63;;;6.63;;
8421;SDS011;4248;48.196;10.924;2023-02-01T00:38:33;9.43;;;5.60;;
8421;SDS011;4248;48.196;10.924;2023-02-01T00:41:11;10.17;;;5.00;;
8421;SDS011;4248;48.196;10.924;2023-02-01T00:43:39;9.43;;;5.53;;
8421;SDS011;4248;48.196;10.924;2023-02-01T00:46:05;13.23;;;6.10;;
8421;SDS011;4248;48.196;10.924;2023-02-01T00:48:30;9.83;;;6.00;;
8421;SDS011;4248;48.196;10.924;2023-02-01T00:51:00;12.20;;;6.23;;
8421;SDS011;4248;48.196;10.924;2023-02-01T00:53:29;14.53;;;6.10;;
8421;SDS011;4248;48.196;10.924;2023-02-01T00:55:56;12.88;;;6.00;;
8421;SDS011;4248;48.196;10.924;2023-02-01T00:58:22;13.00;;;6.43;;
8421;SDS011;4248;48.196;10.924;2023-02-01T01:03:38;10.17;;;6.47;;
8421;SDS011;4248;48.196;10.924;2023-02-01T01:06:07;9.70;;;6.65;;
8421;SDS011;4248;48.196;10.924;2023-02-01T01:08:37;10.80;;;6.10;;
8421;SDS011;4248;48.196;10.924;2023-02-01T01:11:04;10.63;;;5.80;;
8421;SDS011;4248;48.196;10.924;2023-02-01T01:13:35;10.80;;;6.70;;
8421;SDS011;4248;48.196;10.924;2023-02-01T01:16:02;11.65;;;7.22;;
8421;SDS011;4248;48.196;10.924;2023-02-01T01:18:29;11.83;;;7.03;;
8421;SDS011;4248;48.196;10.924;2023-02-01T01:20:55;11.80;;;6.73;;
8421;SDS011;4248;48.196;10.924;2023-02-01T01:23:21;13.83;;;7.63;;
8421;SDS011;4248;48.196;10.924;2023-02-01T01:25:47;18.50;;;6.70;;
8421;SDS011;4248;48.196;10.924;2023-02-01T01:28:13;11.23;;;6.27;;
8421;SDS011;4248;48.196;10.924;2023-02-01T01:30:38;11.67;;;6.60;;
8421;SDS011;4248;48.196;10.924;2023-02-01T01:33:04;15.90;;;6.67;;
8421;SDS011;4248;48.196;10.924;2023-02-01T01:35:30;10.97;;;6.60;;
8421;SDS011;4248;48.196;10.924;2023-02-01T01:37:57;10.05;;;6.50;;
8421;SDS011;4248;48.196;10.924;2023-02-01T01:40:23;10.53;;;6.20;;
8421;SDS011;4248;48.196;10.924;2023-02-01T01:42:49;11.73;;;6.97;;
8421;SDS011;4248;48.196;10.924;2023-02-01T01:45:26;14.45;;;7.32;;
8421;SDS011;4248;48.196;10.924;2023-02-01T01:47:52;13.37;;;7.17;;
8421;SDS011;4248;48.196;10.924;2023-02-01T01:50:25;8.10;;;5.43;;
8421;SDS011;4248;48.196;10.924;2023-02-01T01:52:54;14.37;;;6.00;;
8421;SDS011;4248;48.196;10.924;2023-02-01T01:55:23;10.57;;;5.75;;
8421;SDS011;4248;48.196;10.924;2023-02-01T01:57:52;8.68;;;6.10;;
8421;SDS011;4248;48.196;10.924;2023-02-01T02:00:22;11.30;;;6.53;;
8421;SDS011;4248;48.196;10.924;2023-02-01T02:02:54;9.80;;;6.27;;
8421;SDS011;4248;48.196;10.924;2023-02-01T02:05:34;12.38;;;6.45;;
8421;SDS011;4248;48.196;10.924;2023-02-01T02:08:00;12.20;;;6.23;;
8421;SDS011;4248;48.196;10.924;2023-02-01T02:10:26;10.90;;;6.43;;
8421;SDS011;4248;48.196;10.924;2023-02-01T02:13:12;10.07;;;6.40;;
8421;SDS011;4248;48.196;10.924;2023-02-01T02:15:41;11.93;;;6.97;;
8421;SDS011;4248;48.196;10.924;2023-02-01T02:18:23;17.10;;;6.50;;
8421;SDS011;4248;48.196;10.924;2023-02-01T02:41:12;10.38;;;6.50;;
8421;SDS011;4248;48.196;10.924;2023-02-01T02:44:07;8.43;;;5.17;;
8421;SDS011;4248;48.196;10.924;2023-02-01T02:46:59;9.80;;;5.20;;
8421;SDS011;4248;48.196;10.924;2023-02-01T02:50:23;8.88;;;5.47;;
8421;SDS011;4248;48.196;10.924;2023-02-01T02:53:28;8.15;;;5.05;;
8421;SDS011;4248;48.196;10.924;2023-02-01T02:56:17;6.80;;;5.17;;
8421;SDS011;4248;48.196;10.924;2023-02-01T02:59:06;9.90;;;6.00;;
8421;SDS011;4248;48.196;10.924;2023-02-01T03:01:52;13.57;;;5.47;;
8421;SDS011;4248;48.196;10.924;2023-02-01T03:04:37;9.15;;;4.82;;
8421;SDS011;4248;48.196;10.924;2023-02-01T03:07:14;9.40;;;5.50;;
8421;SDS011;4248;48.196;10.924;2023-02-01T03:10:02;6.20;;;4.43;;
8421;SDS011;4248;48.196;10.924;2023-02-01T03:12:30;9.02;;;5.07;;
8421;SDS011;4248;48.196;10.924;2023-02-01T03:15:20;13.88;;;5.28;;
8421;SDS011;4248;48.196;10.924;2023-02-01T03:17:56;7.73;;;4.77;;
8421;SDS011;4248;48.196;10.924;2023-02-01T03:20:25;7.03;;;5.00;;
8421;SDS011;4248;48.196;10.924;2023-02-01T03:22:52;11.80;;;5.23;;
8421;SDS011;4248;48.196;10.924;2023-02-01T03:25:25;8.10;;;4.43;;
8421;SDS011;4248;48.196;10.924;2023-02-01T03:27:58;7.57;;;4.80;;
8421;SDS011;4248;48.196;10.924;2023-02-01T03:30:37;8.88;;;4.85;;
8421;SDS011;4248;48.196;10.924;2023-02-01T03:33:07;8.80;;;4.72;;
8421;SDS011;4248;48.196;10.924;2023-02-01T03:41:40;8.20;;;4.70;;
8421;SDS011;4248;48.196;10.924;2023-02-01T03:44:16;6.90;;;4.30;;
8421;SDS011;4248;48.196;10.924;2023-02-01T03:46:49;8.98;;;4.68;;
8421;SDS011;4248;48.196;10.924;2023-02-01T03:49:29;8.90;;;5.30;;
8421;SDS011;4248;48.196;10.924;2023-02-01T03:52:02;7.70;;;4.80;;
8421;SDS011;4248;48.196;10.924;2023-02-01T03:54:31;8.20;;;4.80;;
8421;SDS011;4248;48.196;10.924;2023-02-01T03:56:59;6.93;;;4.37;;
8421;SDS011;4248;48.196;10.924;2023-02-01T03:59:29;8.43;;;4.90;;
8421;SDS011;4248;48.196;10.924;2023-02-01T04:01:55;7.70;;;4.47;;
8421;SDS011;4248;48.196;10.924;2023-02-01T04:04:21;9.70;;;4.90;;
8421;SDS011;4248;48.196;10.924;2023-02-01T04:06:47;7.50;;;4.90;;
8421;SDS011;4248;48.196;10.924;2023-02-01T04:09:16;6.20;;;4.10;;
8421;SDS011;4248;48.196;10.924;2023-02-01T04:11:42;8.30;;;4.27;;
8421;SDS011;4248;48.196;10.924;2023-02-01T04:14:07;6.70;;;4.43;;
8421;SDS011;4248;48.196;10.924;2023-02-01T04:16:33;6.83;;;4.47;;
8421;SDS011;4248;48.196;10.924;2023-02-01T04:19:00;8.30;;;4.90;;
8421;SDS011;4248;48.196;10.924;2023-02-01T04:21:26;7.50;;;4.40;;
8421;SDS011;4248;48.196;10.924;2023-02-01T04:23:51;8.60;;;4.90;;
8421;SDS011;4248;48.196;10.924;2023-02-01T04:26:17;8.00;;;5.07;;
8421;SDS011;4248;48.196;10.924;2023-02-01T04:28:44;7.60;;;4.50;;
8421;SDS011;4248;48.196;10.924;2023-02-01T04:31:12;9.67;;;4.90;;
8421;SDS011;4248;48.196;10.924;2023-02-01T04:33:39;9.97;;;5.37;;
8421;SDS011;4248;48.196;10.924;2023-02-01T04:36:04;8.83;;;4.67;;
8421;SDS011;4248;48.196;10.924;2023-02-01T04:38:30;9.20;;;4.83;;
8421;SDS011;4248;48.196;10.924;2023-02-01T04:40:57;9.47;;;4.50;;
8421;SDS011;4248;48.196;10.924;2023-02-01T04:43:23;8.30;;;4.60;;
8421;SDS011;4248;48.196;10.924;2023-02-01T04:45:48;10.80;;;4.70;;
8421;SDS011;4248;48.196;10.924;2023-02-01T04:48:15;8.20;;;4.50;;
8421;SDS011;4248;48.196;10.924;2023-02-01T04:50:42;6.53;;;4.53;;
8421;SDS011;4248;48.196;10.924;2023-02-01T04:53:10;6.03;;;3.97;;
8421;SDS011;4248;48.196;10.924;2023-02-01T04:55:36;6.70;;;4.47;;
8421;SDS011;4248;48.196;10.924;2023-02-01T04:58:02;7.67;;;4.40;;
8421;SDS011;4248;48.196;10.924;2023-02-01T05:00:27;7.13;;;4.47;;
8421;SDS011;4248;48.196;10.924;2023-02-01T05:02:53;5.20;;;4.03;;
8421;SDS011;4248;48.196;10.924;2023-02-01T05:05:19;8.33;;;5.33;;
8421;SDS011;4248;48.196;10.924;2023-02-01T05:07:45;7.50;;;5.03;;
8421;SDS011;4248;48.196;10.924;2023-02-01T05:10:11;9.03;;;5.10;;
8421;SDS011;4248;48.196;10.924;2023-02-01T05:12:37;7.53;;;4.73;;
8421;SDS011;4248;48.196;10.924;2023-02-01T05:15:21;8.80;;;4.80;;
8421;SDS011;4248;48.196;10.924;2023-02-01T05:17:47;7.37;;;4.07;;
8421;SDS011;4248;48.196;10.924;2023-02-01T05:20:13;7.30;;;4.50;;
8421;SDS011;4248;48.196;10.924;2023-02-01T05:22:38;8.00;;;4.47;;
8421;SDS011;4248;48.196;10.924;2023-02-01T05:25:05;9.50;;;4.60;;
8421;SDS011;4248;48.196;10.924;2023-02-01T05:27:31;11.40;;;4.90;;
8421;SDS011;4248;48.196;10.924;2023-02-01T05:29:57;6.70;;;4.50;;
8421;SDS011;4248;48.196;10.924;2023-02-01T05:32:22;8.97;;;4.70;;
8421;SDS011;4248;48.196;10.924;2023-02-01T05:34:48;6.00;;;4.03;;
8421;SDS011;4248;48.196;10.924;2023-02-01T05:37:14;7.47;;;4.70;;
8421;SDS011;4248;48.196;10.924;2023-02-01T05:39:39;8.73;;;4.43;;
8421;SDS011;4248;48.196;10.924;2023-02-01T05:42:05;7.30;;;4.50;;
8421;SDS011;4248;48.196;10.924;2023-02-01T05:44:30;7.20;;;4.57;;
8421;SDS011;4248;48.196;10.924;2023-02-01T05:46:56;8.13;;;4.77;;
8421;SDS011;4248;48.196;10.924;2023-02-01T05:49:22;8.73;;;4.50;;
8421;SDS011;4248;48.196;10.924;2023-02-01T05:51:47;9.60;;;4.90;;
8421;SDS011;4248;48.196;10.924;2023-02-01T05:54:13;6.70;;;4.90;;
8421;SDS011;4248;48.196;10.924;2023-02-01T05:56:38;8.17;;;5.30;;
8421;SDS011;4248;48.196;10.924;2023-02-01T05:59:05;5.90;;;4.40;;
8421;SDS011;4248;48.196;10.924;2023-02-01T06:01:31;6.63;;;4.80;;
8421;SDS011;4248;48.196;10.924;2023-02-01T06:03:56;7.70;;;5.10;;
8421;SDS011;4248;48.196;10.924;2023-02-01T06:06:22;8.43;;;5.20;;
8421;SDS011;4248;48.196;10.924;2023-02-01T06:08:47;8.57;;;5.30;;
8421;SDS011;4248;48.196;10.924;2023-02-01T06:11:13;7.63;;;4.80;;
8421;SDS011;4248;48.196;10.924;2023-02-01T06:13:39;8.50;;;4.73;;
8421;SDS011;4248;48.196;10.924;2023-02-01T06:16:04;10.23;;;5.70;;
8421;SDS011;4248;48.196;10.924;2023-02-01T06:18:32;10.37;;;6.47;;
8421;SDS011;4248;48.196;10.924;2023-02-01T06:20:59;6.55;;;4.90;;
8421;SDS011;4248;48.196;10.924;2023-02-01T06:23:25;8.70;;;5.60;;
8421;SDS011;4248;48.196;10.924;2023-02-01T06:26:01;13.00;;;5.90;;
8421;SDS011;4248;48.196;10.924;2023-02-01T06:28:32;8.00;;;5.33;;
8421;SDS011;4248;48.196;10.924;2023-02-01T06:31:02;12.68;;;5.70;;
8421;SDS011;4248;48.196;10.924;2023-02-01T06:33:31;9.30;;;5.63;;
8421;SDS011;4248;48.196;10.924;2023-02-01T06:35:58;8.30;;;4.60;;
8421;SDS011;4248;48.196;10.924;2023-02-01T06:38:25;36.97;;;6.63;;
8421;SDS011;4248;48.196;10.924;2023-02-01T06:40:54;9.57;;;5.40;;
8421;SDS011;4248;48.196;10.924;2023-02-01T06:43:21;8.00;;;5.47;;
8421;SDS011;4248;48.196;10.924;2023-02-01T06:45:47;16.90;;;7.57;;
8421;SDS011;4248;48.196;10.924;2023-02-01T06:48:13;9.67;;;5.03;;
8421;SDS011;4248;48.196;10.924;2023-02-01T06:50:38;7.27;;;4.90;;
8421;SDS011;4248;48.196;10.924;2023-02-01T06:53:04;6.53;;;4.67;;
8421;SDS011;4248;48.196;10.924;2023-02-01T06:55:29;7.97;;;4.70;;
8421;SDS011;4248;48.196;10.924;2023-02-01T06:57:55;9.23;;;5.00;;
8421;SDS011;4248;48.196;10.924;2023-02-01T07:00:21;10.20;;;5.60;;
8421;SDS011;4248;48.196;10.924;2023-02-01T07:02:47;7.23;;;4.30;;
8421;SDS011;4248;48.196;10.924;2023-02-01T07:05:13;6.63;;;5.10;;
8421;SDS011;4248;48.196;10.924;2023-02-01T07:07:39;6.70;;;4.57;;
8421;SDS011;4248;48.196;10.924;2023-02-01T07:10:05;5.37;;;4.40;;
8421;SDS011;4248;48.196;10.924;2023-02-01T07:12:31;7.00;;;4.57;;
8421;SDS011;4248;48.196;10.924;2023-02-01T07:14:56;5.43;;;3.77;;
8421;SDS011;4248;48.196;10.924;2023-02-01T07:17:22;8.30;;;4.40;;
8421;SDS011;4248;48.196;10.924;2023-02-01T07:19:48;6.50;;;4.17;;
8421;SDS011;4248;48.196;10.924;2023-02-01T07:22:17;5.83;;;4.03;;
8421;SDS011;4248;48.196;10.924;2023-02-01T07:24:43;7.00;;;4.00;;
8421;SDS011;4248;48.196;10.924;2023-02-01T07:27:08;7.13;;;4.37;;
8421;SDS011;4248;48.196;10.924;2023-02-01T07:29:34;8.33;;;3.77;;
8421;SDS011;4248;48.196;10.924;2023-02-01T07:31:59;6.03;;;3.77;;
8421;SDS011;4248;48.196;10.924;2023-02-01T07:34:27;7.27;;;4.23;;
8421;SDS011;4248;48.196;10.924;2023-02-01T07:36:53;5.83;;;4.00;;
8421;SDS011;4248;48.196;10.924;2023-02-01T07:39:19;9.67;;;4.70;;
8421;SDS011;4248;48.196;10.924;2023-02-01T07:41:45;7.90;;;4.10;;
8421;SDS011;4248;48.196;10.924;2023-02-01T07:44:10;6.17;;;4.10;;
8421;SDS011;4248;48.196;10.924;2023-02-01T07:46:36;9.10;;;4.57;;
8421;SDS011;4248;48.196;10.924;2023-02-01T07:49:03;6.10;;;4.20;;
8421;SDS011;4248;48.196;10.924;2023-02-01T07:51:29;6.43;;;4.50;;
8421;SDS011;4248;48.196;10.924;2023-02-01T07:53:54;6.73;;;4.10;;
8421;SDS011;4248;48.196;10.924;2023-02-01T07:56:20;11.70;;;4.87;;
8421;SDS011;4248;48.196;10.924;2023-02-01T07:58:51;12.77;;;4.13;;
8421;SDS011;4248;48.196;10.924;2023-02-01T08:01:19;5.97;;;4.20;;
8421;SDS011;4248;48.196;10.924;2023-02-01T08:03:50;6.60;;;4.20;;
8421;SDS011;4248;48.196;10.924;2023-02-01T08:06:21;6.57;;;3.60;;
8421;SDS011;4248;48.196;10.924;2023-02-01T08:08:48;6.03;;;3.85;;
8421;SDS011;4248;48.196;10.924;2023-02-01T08:11:15;6.87;;;3.90;;
8421;SDS011;4248;48.196;10.924;2023-02-01T08:13:41;8.27;;;4.20;;
8421;SDS011;4248;48.196;10.924;2023-02-01T08:16:08;6.77;;;4.23;;
8421;SDS011;4248;48.196;10.924;2023-02-01T08:18:35;5.70;;;3.83;;
8421;SDS011;4248;48.196;10.924;2023-02-01T08:21:03;6.60;;;4.30;;
8421;SDS011;4248;48.196;10.924;2023-02-01T08:23:29;6.57;;;4.37;;
8421;SDS011;4248;48.196;10.924;2023-02-01T08:26:03;5.47;;;4.10;;
8421;SDS011;4248;48.196;10.924;2023-02-01T08:28:33;8.13;;;4.10;;
8421;SDS011;4248;48.196;10.924;2023-02-01T08:30:58;6.20;;;4.00;;
8421;SDS011;4248;48.196;10.924;2023-02-01T08:33:28;7.30;;;3.73;;
8421;SDS011;4248;48.196;10.924;2023-02-01T08:35:54;5.60;;;3.47;;
8421;SDS011;4248;48.196;10.924;2023-02-01T08:38:19;6.37;;;4.10;;
8421;SDS011;4248;48.196;10.924;2023-02-01T08:40:45;7.00;;;3.70;;
8421;SDS011;4248;48.196;10.924;2023-02-01T08:43:11;10.60;;;4.27;;
8421;SDS011;4248;48.196;10.924;2023-02-01T08:45:37;8.30;;;3.83;;
8421;SDS011;4248;48.196;10.924;2023-02-01T08:48:02;7.13;;;4.97;;
8421;SDS011;4248;48.196;10.924;2023-02-01T08:50:28;11.53;;;5.23;;
8421;SDS011;4248;48.196;10.924;2023-02-01T08:52:54;5.50;;;3.50;;
8421;SDS011;4248;48.196;10.924;2023-02-01T08:55:20;8.17;;;4.10;;
8421;SDS011;4248;48.196;10.924;2023-02-01T08:57:45;5.87;;;3.60;;
8421;SDS011;4248;48.196;10.924;2023-02-01T09:00:12;5.33;;;3.53;;
8421;SDS011;4248;48.196;10.924;2023-02-01T09:02:40;7.77;;;3.47;;
8421;SDS011;4248;48.196;10.924;2023-02-01T09:05:07;5.73;;;3.80;;
8421;SDS011;4248;48.196;10.924;2023-02-01T09:07:33;5.30;;;3.30;;
8421;SDS011;4248;48.196;10.924;2023-02-01T09:09:59;6.00;;;3.50;;
8421;SDS011;4248;48.196;10.924;2023-02-01T09:12:26;4.87;;;3.23;;
8421;SDS011;4248;48.196;10.924;2023-02-01T09:14:53;6.43;;;3.13;;
8421;SDS011;4248;48.196;10.924;2023-02-01T09:17:20;5.50;;;3.00;;
8421;SDS011;4248;48.196;10.924;2023-02-01T09:19:45;6.03;;;3.17;;
8421;SDS011;4248;48.196;10.924;2023-02-01T09:22:11;5.87;;;3.57;;
8421;SDS011;4248;48.196;10.924;2023-02-01T09:24:37;4.67;;;2.97;;
8421;SDS011;4248;48.196;10.924;2023-02-01T09:27:02;5.00;;;3.10;;
8421;SDS011;4248;48.196;10.924;2023-02-01T09:29:28;7.00;;;3.10;;
8421;SDS011;4248;48.196;10.924;2023-02-01T09:31:54;5.80;;;2.80;;
8421;SDS011;4248;48.196;10.924;2023-02-01T09:34:19;6.57;;;3.47;;
8421;SDS011;4248;48.196;10.924;2023-02-01T09:36:45;6.37;;;3.03;;
8421;SDS011;4248;48.196;10.924;2023-02-01T09:39:10;6.27;;;3.33;;
8421;SDS011;4248;48.196;10.924;2023-02-01T09:41:45;3.33;;;2.50;;
8421;SDS011;4248;48.196;10.924;2023-02-01T09:46:46;5.80;;;3.53;;
8421;SDS011;4248;48.196;10.924;2023-02-01T09:49:13;5.53;;;3.43;;
8421;SDS011;4248;48.196;10.924;2023-02-01T09:51:45;4.73;;;3.40;;
8421;SDS011;4248;48.196;10.924;2023-02-01T09:54:19;4.70;;;2.97;;
8421;SDS011;4248;48.196;10.924;2023-02-01T09:56:48;4.40;;;3.00;;
8421;SDS011;4248;48.196;10.924;2023-02-01T10:02:13;6.13;;;3.50;;
8421;SDS011;4248;48.196;10.924;2023-02-01T10:04:42;6.23;;;2.93;;
8421;SDS011;4248;48.196;10.924;2023-02-01T10:10:00;3.50;;;2.70;;
8421;SDS011;4248;48.196;10.924;2023-02-01T10:12:53;5.37;;;3.70;;
8421;SDS011;4248;48.196;10.924;2023-02-01T10:24:14;4.67;;;3.10;;
8421;SDS011;4248;48.196;10.924;2023-02-01T10:26:57;5.20;;;3.27;;
8421;SDS011;4248;48.196;10.924;2023-02-01T10:29:30;5.57;;;3.10;;
8421;SDS011;4248;48.196;10.924;2023-02-01T10:32:00;5.60;;;3.20;;
8421;SDS011;4248;48.196;10.924;2023-02-01T10:34:28;6.80;;;3.40;;
8421;SDS011;4248;48.196;10.924;2023-02-01T10:39:47;7.00;;;3.60;;
8421;SDS011;4248;48.196;10.924;2023-02-01T10:42:15;6.70;;;2.90;;
8421;SDS011;4248;48.196;10.924;2023-02-01T10:44:50;4.23;;;3.03;;
8421;SDS011;4248;48.196;10.924;2023-02-01T10:47:16;6.43;;;3.73;;
8421;SDS011;4248;48.196;10.924;2023-02-01T10:57:58;6.53;;;3.30;;
8421;SDS011;4248;48.196;10.924;2023-02-01T11:00:26;5.87;;;3.10;;
8421;SDS011;4248;48.196;10.924;2023-02-01T11:02:53;6.00;;;3.20;;
8421;SDS011;4248;48.196;10.924;2023-02-01T11:05:19;8.30;;;3.10;;
8421;SDS011;4248;48.196;10.924;2023-02-01T11:07:52;8.03;;;3.60;;
8421;SDS011;4248;48.196;10.924;2023-02-01T11:10:40;5.20;;;3.30;;
8421;SDS011;4248;48.196;10.924;2023-02-01T11:13:12;6.50;;;3.57;;
8421;SDS011;4248;48.196;10.924;2023-02-01T11:15:42;6.73;;;3.20;;
8421;SDS011;4248;48.196;10.924;2023-02-01T11:18:19;4.90;;;3.10;;
8421;SDS011;4248;48.196;10.924;2023-02-01T11:20:51;6.90;;;3.53;;
8421;SDS011;4248;48.196;10.924;2023-02-01T11:23:20;5.53;;;3.30;;
8421;SDS011;4248;48.196;10.924;2023-02-01T11:25:58;5.37;;;3.07;;
8421;SDS011;4248;48.196;10.924;2023-02-01T11:28:29;6.37;;;3.10;;
8421;SDS011;4248;48.196;10.924;2023-02-01T11:30:59;7.10;;;3.90;;
8421;SDS011;4248;48.196;10.924;2023-02-01T11:33:28;5.67;;;3.53;;
8421;SDS011;4248;48.196;10.924;2023-02-01T11:36:00;7.63;;;3.40;;
8421;SDS011;4248;48.196;10.924;2023-02-01T11:38:37;9.73;;;3.20;;
8421;SDS011;4248;48.196;10.924;2023-02-01T11:44:15;5.23;;;3.43;;
8421;SDS011;4248;48.196;10.924;2023-02-01T11:46:48;7.83;;;3.80;;
8421;SDS011;4248;48.196;10.924;2023-02-01T12:00:09;14.20;;;3.57;;
8421;SDS011;4248;48.196;10.924;2023-02-01T12:03:24;6.13;;;3.30;;
8421;SDS011;4248;48.196;10.924;2023-02-01T12:06:05;7.40;;;3.07;;
8421;SDS011;4248;48.196;10.924;2023-02-01T12:17:17;5.87;;;2.73;;
8421;SDS011;4248;48.196;10.924;2023-02-01T12:20:31;6.10;;;2.90;;
8421;SDS011;4248;48.196;10.924;2023-02-01T12:23:07;9.70;;;3.33;;
8421;SDS011;4248;48.196;10.924;2023-02-01T12:31:38;7.83;;;2.57;;
8421;SDS011;4248;48.196;10.924;2023-02-01T12:36:58;4.83;;;3.10;;
8421;SDS011;4248;48.196;10.924;2023-02-01T12:39:44;6.30;;;3.80;;
8421;SDS011;4248;48.196;10.924;2023-02-01T12:42:37;10.50;;;3.47;;
8421;SDS011;4248;48.196;10.924;2023-02-01T12:45:15;5.57;;;2.90;;
8421;SDS011;4248;48.196;10.924;2023-02-01T12:47:51;7.20;;;3.30;;
8421;SDS011;4248;48.196;10.924;2023-02-01T12:50:24;5.43;;;3.20;;
8421;SDS011;4248;48.196;10.924;2023-02-01T12:52:55;6.40;;;3.20;;
8421;SDS011;4248;48.196;10.924;2023-02-01T12:55:35;5.13;;;3.23;;
8421;SDS011;4248;48.196;10.924;2023-02-01T12:58:12;8.30;;;3.10;;
8421;SDS011;4248;48.196;10.924;2023-02-01T13:06:45;6.37;;;2.97;;
8421;SDS011;4248;48.196;10.924;2023-02-01T13:09:51;5.80;;;2.80;;
8421;SDS011;4248;48.196;10.924;2023-02-01T13:12:32;4.43;;;3.00;;
8421;SDS011;4248;48.196;10.924;2023-02-01T13:15:10;4.87;;;3.10;;
8421;SDS011;4248;48.196;10.924;2023-02-01T13:17:50;5.43;;;2.43;;
8421;SDS011;4248;48.196;10.924;2023-02-01T13:20:39;4.23;;;2.67;;
8421;SDS011;4248;48.196;10.924;2023-02-01T13:23:15;6.97;;;3.13;;
8421;SDS011;4248;48.196;10.924;2023-02-01T13:25:54;5.50;;;3.20;;
8421;SDS011;4248;48.196;10.924;2023-02-01T13:34:23;4.77;;;2.33;;
8421;SDS011;4248;48.196;10.924;2023-02-01T13:42:15;4.50;;;2.70;;
8421;SDS011;4248;48.196;10.924;2023-02-01T13:44:51;15.90;;;7.60;;
8421;SDS011;4248;48.196;10.924;2023-02-01T13:47:26;50.63;;;21.00;;
8421;SDS011;4248;48.196;10.924;2023-02-01T13:52:43;7.00;;;3.87;;
8421;SDS011;4248;48.196;10.924;2023-02-01T13:57:44;5.53;;;2.00;;
8421;SDS011;4248;48.196;10.924;2023-02-01T14:10:48;4.40;;;2.37;;
8421;SDS011;4248;48.196;10.924;2023-02-01T14:37:04;7.50;;;2.83;;
8421;SDS011;4248;48.196;10.924;2023-02-01T14:39:37;6.57;;;2.73;;
8421;SDS011;4248;48.196;10.924;2023-02-01T14:42:27;6.40;;;2.67;;
8421;SDS011;4248;48.196;10.924;2023-02-01T14:55:43;6.57;;;3.00;;
8421;SDS011;4248;48.196;10.924;2023-02-01T15:01:04;9.10;;;3.00;;
8421;SDS011;4248;48.196;10.924;2023-02-01T15:03:49;4.53;;;2.10;;
8421;SDS011;4248;48.196;10.924;2023-02-01T15:06:46;5.23;;;2.57;;
8421;SDS011;4248;48.196;10.924;2023-02-01T15:09:16;4.90;;;1.97;;
8421;SDS011;4248;48.196;10.924;2023-02-01T15:11:53;8.03;;;1.90;;
8421;SDS011;4248;48.196;10.924;2023-02-01T15:14:29;3.40;;;1.47;;
8421;SDS011;4248;48.196;10.924;2023-02-01T15:16:57;3.70;;;1.90;;
8421;SDS011;4248;48.196;10.924;2023-02-01T15:19:23;6.03;;;2.17;;
8421;SDS011;4248;48.196;10.924;2023-02-01T15:21:52;5.73;;;2.40;;
8421;SDS011;4248;48.196;10.924;2023-02-01T15:26:48;5.57;;;2.00;;
8421;SDS011;4248;48.196;10.924;2023-02-01T15:29:14;7.73;;;2.40;;
8421;SDS011;4248;48.196;10.924;2023-02-01T15:31:44;5.73;;;1.97;;
8421;SDS011;4248;48.196;10.924;2023-02-01T15:34:11;6.93;;;2.10;;
8421;SDS011;4248;48.196;10.924;2023-02-01T15:36:37;4.80;;;1.80;;
8421;SDS011;4248;48.196;10.924;2023-02-01T15:41:48;9.53;;;2.37;;
8421;SDS011;4248;48.196;10.924;2023-02-01T15:47:05;9.03;;;1.93;;
8421;SDS011;4248;48.196;10.924;2023-02-01T15:49:37;7.63;;;2.03;;
8421;SDS011;4248;48.196;10.924;2023-02-01T15:52:16;8.60;;;2.60;;
8421;SDS011;4248;48.196;10.924;2023-02-01T15:55:02;4.33;;;1.80;;
8421;SDS011;4248;48.196;10.924;2023-02-01T15:57:50;8.03;;;1.90;;
8421;SDS011;4248;48.196;10.924;2023-02-01T16:00:27;4.67;;;1.90;;
8421;SDS011;4248;48.196;10.924;2023-02-01T16:02:59;7.83;;;2.40;;
8421;SDS011;4248;48.196;10.924;2023-02-01T16:05:39;3.53;;;1.57;;
8421;SDS011;4248;48.196;10.924;2023-02-01T16:08:21;4.60;;;2.10;;
8421;SDS011;4248;48.196;10.924;2023-02-01T16:10:49;12.67;;;3.30;;
8421;SDS011;4248;48.196;10.924;2023-02-01T16:13:18;6.13;;;1.83;;
8421;SDS011;4248;48.196;10.924;2023-02-01T16:15:48;10.13;;;2.20;;
8421;SDS011;4248;48.196;10.924;2023-02-01T16:18:14;5.40;;;1.90;;
8421;SDS011;4248;48.196;10.924;2023-02-01T16:20:41;9.80;;;2.57;;
8421;SDS011;4248;48.196;10.924;2023-02-01T16:23:07;6.90;;;1.90;;
8421;SDS011;4248;48.196;10.924;2023-02-01T16:25:34;4.30;;;1.63;;
8421;SDS011;4248;48.196;10.924;2023-02-01T16:28:00;10.07;;;2.60;;
8421;SDS011;4248;48.196;10.924;2023-02-01T16:30:26;4.30;;;2.20;;
8421;SDS011;4248;48.196;10.924;2023-02-01T16:32:55;7.80;;;2.13;;
8421;SDS011;4248;48.196;10.924;2023-02-01T16:35:27;6.70;;;1.97;;
8421;SDS011;4248;48.196;10.924;2023-02-01T16:37:52;8.90;;;3.57;;
8421;SDS011;4248;48.196;10.924;2023-02-01T16:40:18;8.13;;;4.20;;
8421;SDS011;4248;48.196;10.924;2023-02-01T16:42:47;7.87;;;2.53;;
8421;SDS011;4248;48.196;10.924;2023-02-01T16:45:15;6.93;;;2.93;;
8421;SDS011;4248;48.196;10.924;2023-02-01T16:47:44;13.07;;;3.23;;
8421;SDS011;4248;48.196;10.924;2023-02-01T16:50:16;7.83;;;3.20;;
8421;SDS011;4248;48.196;10.924;2023-02-01T16:52:45;10.00;;;2.70;;
8421;SDS011;4248;48.196;10.924;2023-02-01T16:55:14;9.23;;;2.57;;
8421;SDS011;4248;48.196;10.924;2023-02-01T16:57:41;8.53;;;2.70;;
8421;SDS011;4248;48.196;10.924;2023-02-01T17:00:08;5.33;;;2.23;;
8421;SDS011;4248;48.196;10.924;2023-02-01T17:02:34;5.50;;;2.70;;
8421;SDS011;4248;48.196;10.924;2023-02-01T17:05:00;13.40;;;2.70;;
8421;SDS011;4248;48.196;10.924;2023-02-01T17:07:26;6.50;;;2.33;;
8421;SDS011;4248;48.196;10.924;2023-02-01T17:09:51;9.40;;;2.43;;
8421;SDS011;4248;48.196;10.924;2023-02-01T17:12:28;7.93;;;2.63;;
8421;SDS011;4248;48.196;10.924;2023-02-01T17:14:55;7.10;;;2.73;;
8421;SDS011;4248;48.196;10.924;2023-02-01T17:17:22;4.80;;;2.17;;
8421;SDS011;4248;48.196;10.924;2023-02-01T17:19:50;6.53;;;2.30;;
8421;SDS011;4248;48.196;10.924;2023-02-01T17:22:18;8.63;;;2.07;;
8421;SDS011;4248;48.196;10.924;2023-02-01T17:24:44;11.87;;;2.47;;
8421;SDS011;4248;48.196;10.924;2023-02-01T17:27:10;6.60;;;2.17;;
8421;SDS011;4248;48.196;10.924;2023-02-01T17:29:36;9.90;;;2.30;;
8421;SDS011;4248;48.196;10.924;2023-02-01T17:32:01;9.43;;;2.70;;
8421;SDS011;4248;48.196;10.924;2023-02-01T17:34:28;9.43;;;2.30;;
8421;SDS011;4248;48.196;10.924;2023-02-01T17:36:54;10.13;;;3.03;;
8421;SDS011;4248;48.196;10.924;2023-02-01T17:39:19;9.80;;;2.40;;
8421;SDS011;4248;48.196;10.924;2023-02-01T17:42:04;10.40;;;2.07;;
8421;SDS011;4248;48.196;10.924;2023-02-01T17:44:33;12.47;;;2.30;;
8421;SDS011;4248;48.196;10.924;2023-02-01T17:46:58;7.07;;;2.00;;
8421;SDS011;4248;48.196;10.924;2023-02-01T17:49:24;4.87;;;2.13;;
8421;SDS011;4248;48.196;10.924;2023-02-01T17:51:52;10.03;;;3.03;;
8421;SDS011;4248;48.196;10.924;2023-02-01T17:54:19;5.47;;;1.93;;
8421;SDS011;4248;48.196;10.924;2023-02-01T17:56:44;7.20;;;2.60;;
8421;SDS011;4248;48.196;10.924;2023-02-01T17:59:12;4.60;;;1.90;;
8421;SDS011;4248;48.196;10.924;2023-02-01T18:01:39;10.33;;;2.80;;
8421;SDS011;4248;48.196;10.924;2023-02-01T18:04:05;8.13;;;2.17;;